createdAt,value
2023-01-22T00:00:03.412Z,10.30
2023-01-22T00:05:15.884Z,9.80
2023-01-22T00:10:20.841Z,10.05
2023-01-22T00:15:24.388Z,10.05
2023-01-22T00:20:27.718Z,11.38
2023-01-22T00:25:32.704Z,10.67
2023-01-22T00:30:36.139Z,12.07
2023-01-22T00:35:39.835Z,12.73
2023-01-22T00:40:45.081Z,10.63
2023-01-22T00:45:48.542Z,14.95
2023-01-22T00:50:51.955Z,12.20
2023-01-22T00:55:58.688Z,12.53
2023-01-22T01:01:03.138Z,11.65
2023-01-22T01:06:09.792Z,11.93
2023-01-22T01:11:17.035Z,13.57
2023-01-22T01:16:23.723Z,15.00
2023-01-22T01:21:27.325Z,10.63
2023-01-22T01:26:33.575Z,10.87
2023-01-22T01:31:39.632Z,9.85
2023-01-22T01:36:49.583Z,10.27
2023-01-22T01:41:54.931Z,11.27
2023-01-22T01:47:02.167Z,10.25
2023-01-22T01:52:10.594Z,11.00
2023-01-22T01:57:19.446Z,12.65
2023-01-22T02:02:23.632Z,11.83
2023-01-22T02:07:27.058Z,11.20
2023-01-22T02:12:31.904Z,12.32
2023-01-22T02:17:35.304Z,11.13
2023-01-22T02:22:40.965Z,11.77
2023-01-22T02:27:44.502Z,10.32
2023-01-22T02:32:48.129Z,9.90
2023-01-22T02:37:53.007Z,10.80
2023-01-22T02:42:58.217Z,9.40
2023-01-22T02:48:02.229Z,9.63
2023-01-22T02:53:11.274Z,10.70
2023-01-22T02:58:14.772Z,8.93
2023-01-22T03:03:18.349Z,9.50
2023-01-22T03:08:26.711Z,9.45
2023-01-22T03:13:48.161Z,9.37
2023-01-22T03:19:08.960Z,8.95
2023-01-22T03:24:13.848Z,9.33
2023-01-22T03:29:17.787Z,9.10
2023-01-22T03:34:25.985Z,8.90
2023-01-22T03:39:34.328Z,8.88
2023-01-22T03:44:39.428Z,9.93
2023-01-22T03:49:43.032Z,8.95
2023-01-22T03:54:48.359Z,8.77
2023-01-22T03:59:51.931Z,10.03
2023-01-22T04:04:55.721Z,9.50
2023-01-22T04:10:01.540Z,10.05
2023-01-22T04:15:09.001Z,10.85
2023-01-22T04:20:13.208Z,9.90
2023-01-22T04:25:25.457Z,9.97
2023-01-22T04:30:29.684Z,9.20
2023-01-22T04:35:44.255Z,11.20
2023-01-22T04:40:49.967Z,8.87
2023-01-22T04:45:53.490Z,9.57
2023-01-22T04:51:02.870Z,8.82
2023-01-22T04:56:09.901Z,9.38
2023-01-22T05:01:14.112Z,9.63
2023-01-22T05:06:17.610Z,11.63
2023-01-22T05:11:22.399Z,10.20
2023-01-22T05:16:34.280Z,11.68
2023-01-22T05:21:37.686Z,8.68
2023-01-22T05:26:43.838Z,11.13
2023-01-22T05:31:51.486Z,9.50
2023-01-22T05:37:10.117Z,12.52
2023-01-22T05:42:18.208Z,10.67
2023-01-22T05:47:24.685Z,10.52
2023-01-22T05:52:46.312Z,10.40
2023-01-22T05:57:51.767Z,10.88
2023-01-22T06:02:58.018Z,10.13
2023-01-22T06:08:01.790Z,11.27
2023-01-22T06:13:14.339Z,11.27
2023-01-22T06:18:20.874Z,11.48
2023-01-22T06:23:26.068Z,8.32
2023-01-22T06:28:31.565Z,11.73
2023-01-22T06:33:36.631Z,11.57
2023-01-22T06:38:40.822Z,11.45
2023-01-22T06:43:48.066Z,12.52
2023-01-22T06:48:51.531Z,11.35
2023-01-22T06:53:54.910Z,11.10
2023-01-22T06:59:00.186Z,11.07
2023-01-22T07:04:03.647Z,9.93
2023-01-22T07:09:07.172Z,11.30
2023-01-22T07:14:11.897Z,11.03
2023-01-22T07:19:15.194Z,10.27
2023-01-22T07:24:18.951Z,9.90
2023-01-22T07:29:23.615Z,10.52
2023-01-22T07:34:27.008Z,9.80
2023-01-22T07:39:30.332Z,10.20
2023-01-22T07:44:37.083Z,9.40
2023-01-22T07:49:40.440Z,9.30
2023-01-22T07:54:43.722Z,8.90
2023-01-22T07:59:48.441Z,8.97
2023-01-22T08:04:51.742Z,9.73
2023-01-22T08:09:55.275Z,9.40
2023-01-22T08:15:00.869Z,10.68
2023-01-22T08:20:05.005Z,10.70
2023-01-22T08:25:08.882Z,10.87
2023-01-22T08:30:15.974Z,12.43
2023-01-22T08:35:21.696Z,12.35
2023-01-22T08:40:25.231Z,11.27
2023-01-22T08:45:30.060Z,11.65
2023-01-22T08:50:33.803Z,11.20
2023-01-22T08:55:37.224Z,11.53
2023-01-22T09:00:42.107Z,10.02
2023-01-22T09:05:45.591Z,9.48
2023-01-22T09:10:49.153Z,10.68
2023-01-22T09:15:58.561Z,10.43
2023-01-22T09:21:02.157Z,10.38
2023-01-22T09:26:06.159Z,9.18
2023-01-22T09:31:13.315Z,8.93
2023-01-22T09:36:18.249Z,8.23
2023-01-22T09:41:26.419Z,8.55
2023-01-22T09:46:35.461Z,9.23
2023-01-22T09:51:39.028Z,9.35
2023-01-22T09:56:45.470Z,9.23
2023-01-22T10:01:54.497Z,10.15
2023-01-22T10:07:00.110Z,12.15
2023-01-22T10:12:13.129Z,14.97
2023-01-22T10:17:22.238Z,8.90
2023-01-22T10:22:27.568Z,8.73
2023-01-22T10:27:39.507Z,8.90
2023-01-22T10:32:44.443Z,9.18
2023-01-22T10:37:51.237Z,7.97
2023-01-22T10:43:06.229Z,8.53
2023-01-22T10:48:16.604Z,8.05
2023-01-22T10:53:24.494Z,8.60
2023-01-22T10:58:32.309Z,7.57
2023-01-22T11:03:39.772Z,8.07
2023-01-22T11:08:48.438Z,8.17
2023-01-22T11:13:56.144Z,7.03
2023-01-22T11:19:06.255Z,7.60
2023-01-22T11:24:16.158Z,8.48
2023-01-22T11:29:39.103Z,8.43
2023-01-22T11:35:04.084Z,7.20
2023-01-22T11:40:20.773Z,7.27
2023-01-22T11:45:36.838Z,6.53
2023-01-22T11:50:48.807Z,7.50
2023-01-22T11:56:07.188Z,8.43
2023-01-22T12:01:20.780Z,7.93
2023-01-22T12:06:51.142Z,8.77
2023-01-22T12:12:06.165Z,8.55
2023-01-22T12:17:25.110Z,8.57
2023-01-22T12:22:37.392Z,9.18
2023-01-22T12:27:49.034Z,11.25
2023-01-22T12:32:56.867Z,16.38
2023-01-22T12:38:12.124Z,8.35
2023-01-22T12:43:18.052Z,8.95
2023-01-22T12:48:29.907Z,8.63
2023-01-22T12:53:35.936Z,10.57
2023-01-22T12:58:41.667Z,8.40
2023-01-22T13:03:45.791Z,5.80
2023-01-22T13:08:51.919Z,5.90
2023-01-22T13:14:13.758Z,4.38
2023-01-22T13:19:22.056Z,7.87
2023-01-22T13:24:28.313Z,4.50
2023-01-22T13:29:34.244Z,4.65
2023-01-22T13:34:38.307Z,3.83
2023-01-22T13:39:43.802Z,6.25
2023-01-22T13:44:51.554Z,6.47
2023-01-22T13:49:55.327Z,3.95
2023-01-22T13:55:05.925Z,4.53
2023-01-22T14:00:24.961Z,4.90
2023-01-22T14:05:31.141Z,4.93
2023-01-22T14:10:36.523Z,5.88
2023-01-22T14:15:41.171Z,7.93
2023-01-22T14:20:46.358Z,10.20
2023-01-22T14:25:52.963Z,12.77
2023-01-22T14:30:56.498Z,8.67
2023-01-22T14:36:00.982Z,8.00
2023-01-22T14:41:07.578Z,10.60
2023-01-22T14:46:11.269Z,9.83
2023-01-22T14:51:14.941Z,11.35
2023-01-22T14:56:19.640Z,11.70
2023-01-22T15:01:25.288Z,12.85
2023-01-22T15:06:29.398Z,11.40
2023-01-22T15:11:34.483Z,12.67
2023-01-22T15:16:39.206Z,12.00
2023-01-22T15:21:43.122Z,12.50
2023-01-22T15:26:48.313Z,12.25
2023-01-22T15:31:54.373Z,13.23
2023-01-22T15:36:58.052Z,18.50
2023-01-22T15:42:03.333Z,23.65
2023-01-22T15:47:07.997Z,16.27
2023-01-22T15:52:11.510Z,13.43
2023-01-22T15:57:16.205Z,15.52
2023-01-22T16:02:19.645Z,16.77
2023-01-22T16:07:23.103Z,18.42
2023-01-22T16:12:27.812Z,17.40
2023-01-22T16:17:31.191Z,19.55
2023-01-22T16:22:34.530Z,22.10
2023-01-22T16:27:39.692Z,20.55
2023-01-22T16:32:46.302Z,23.90
2023-01-22T16:37:50.324Z,23.15
2023-01-22T16:43:00.855Z,21.20
2023-01-22T16:48:04.669Z,19.00
2023-01-22T16:53:08.102Z,18.90
2023-01-22T16:58:12.966Z,20.20
2023-01-22T17:03:16.929Z,19.00
2023-01-22T17:08:20.244Z,20.40
2023-01-22T17:13:25.311Z,19.95
2023-01-22T17:18:28.822Z,19.02
2023-01-22T17:23:32.213Z,19.33
2023-01-22T17:28:39.559Z,22.45
2023-01-22T17:33:43.502Z,19.50
2023-01-22T17:38:46.963Z,24.83
2023-01-22T17:43:53.242Z,20.00
2023-01-22T17:48:57.026Z,20.20
2023-01-22T17:54:03.257Z,24.67
2023-01-22T17:59:08.456Z,21.80
2023-01-22T18:04:13.376Z,22.90
2023-01-22T18:09:17.440Z,21.90
2023-01-22T18:14:22.965Z,27.67
2023-01-22T18:19:26.277Z,23.55
2023-01-22T18:24:31.343Z,22.13
2023-01-22T18:29:36.271Z,26.80
2023-01-22T18:34:39.654Z,25.63
2023-01-22T18:39:42.991Z,28.95
2023-01-22T18:44:47.956Z,26.97
2023-01-22T18:49:51.410Z,27.98
2023-01-22T18:54:54.868Z,27.45
2023-01-22T18:59:59.634Z,29.65
2023-01-22T19:05:03.396Z,28.50
2023-01-22T19:10:08.042Z,31.97
2023-01-22T19:15:13.828Z,35.60
2023-01-22T19:20:17.659Z,33.00
2023-01-22T19:25:21.649Z,31.83
2023-01-22T19:30:26.537Z,31.90
2023-01-22T19:35:29.824Z,32.13
2023-01-22T19:40:33.099Z,37.63
2023-01-22T19:45:38.843Z,33.30
2023-01-22T19:50:42.128Z,32.22
2023-01-22T19:55:45.493Z,33.90
2023-01-22T20:00:50.365Z,33.45
2023-01-22T20:05:53.693Z,34.07
2023-01-22T20:11:00.192Z,26.80
2023-01-22T20:16:06.769Z,23.35
2023-01-22T20:21:12.111Z,30.17
2023-01-22T20:26:16.401Z,28.23
2023-01-22T20:31:23.939Z,28.15
2023-01-22T20:36:29.227Z,29.30
2023-01-22T20:41:34.465Z,31.95
2023-01-22T20:46:41.288Z,27.33
2023-01-22T20:51:44.682Z,30.67
2023-01-22T20:56:48.099Z,30.70
2023-01-22T21:01:54.374Z,30.03
2023-01-22T21:06:58.204Z,25.52
2023-01-22T21:12:01.858Z,24.13
2023-01-22T21:17:06.609Z,22.02
2023-01-22T21:22:09.878Z,22.67
2023-01-22T21:27:13.298Z,26.80
2023-01-22T21:32:19.550Z,22.03
2023-01-22T21:37:24.064Z,19.33
2023-01-22T21:42:46.738Z,19.90
2023-01-22T21:47:52.225Z,14.65
2023-01-22T21:52:55.855Z,13.93
2023-01-22T21:57:59.190Z,14.93
2023-01-22T22:03:03.856Z,15.35
2023-01-22T22:08:07.444Z,13.30
2023-01-22T22:13:10.738Z,12.90
2023-01-22T22:18:15.693Z,13.52
2023-01-22T22:23:18.989Z,13.98
2023-01-22T22:28:22.340Z,13.98
2023-01-22T22:33:27.186Z,15.77
2023-01-22T22:38:30.805Z,14.18
2023-01-22T22:43:35.666Z,15.07
2023-01-22T22:48:40.409Z,14.37
2023-01-22T22:53:44.119Z,16.02
2023-01-22T22:58:48.007Z,16.67
2023-01-22T23:03:53.713Z,21.08
2023-01-22T23:08:58.690Z,18.73
2023-01-22T23:14:02.855Z,22.55
2023-01-22T23:19:10.561Z,21.38
2023-01-22T23:24:14.795Z,19.95
2023-01-22T23:29:24.221Z,21.25
2023-01-22T23:34:29.036Z,18.87
2023-01-22T23:39:32.409Z,19.77
2023-01-22T23:44:35.739Z,21.02
2023-01-22T23:49:40.766Z,21.27
2023-01-22T23:54:44.130Z,22.80
2023-01-22T23:59:50.632Z,22.70
